British Tenacity — MDTE9 — position and weather

sailwx.info

Track history (hours):
 
Tides and Currents Weather Stations Pressure Air Temp Water Temp Dewpoint Dewpoint Depression Visibility Wind Speed Wind Dir Waves Ship Positions

British Tenacity

Last reported at 2014-Oct-31 18:28 UTC. Time now 2014-Oct-31 19:29 UTC.
Position N 52°25' E 004°47'.

Type: Ship (hazmat cat C). MMSI: 235825000.

Date/timePositionNaut miles runAvg speedWind from/ knotsBaromVisibWave heightAir tempDewpointWater temp
2014-Oct-31 18:28N 52°25' E 004°47'0 0.0
2014-Oct-31 17:25N 52°25' E 004°47'0 0.0
2014-Oct-31 16:31N 52°25' E 004°47'0 0.0
2014-Oct-31 15:31N 52°25' E 004°47'0 0.0
2014-Oct-31 14:28N 52°25' E 004°47'0 0.0
2014-Oct-31 13:31N 52°25' E 004°47'0 0.0
2014-Oct-31 12:31N 52°25' E 004°47'0 0.0
2014-Oct-31 11:31N 52°25' E 004°47'0 0.0
2014-Oct-31 10:31N 52°25' E 004°47'0 0.0
2014-Oct-31 09:31N 52°25' E 004°47'0 0.0
2014-Oct-31 08:28N 52°25' E 004°47'0 0.0
2014-Oct-31 07:31N 52°25' E 004°47'0 0.0
2014-Oct-31 06:31N 52°25' E 004°47'0 0.0
2014-Oct-31 05:31N 52°25' E 004°47'0 0.0
2014-Oct-31 04:31N 52°25' E 004°47'0 0.0
2014-Oct-31 03:31N 52°25' E 004°47'0 0.0
2014-Oct-31 02:31N 52°25' E 004°47'0 0.0
2014-Oct-31 01:28N 52°25' E 004°47'0 0.0
2014-Oct-31 00:31N 52°25' E 004°47'0 0.0
2014-Oct-30 23:31N 52°25' E 004°47'0 0.0
2014-Oct-30 22:31N 52°25' E 004°47'0 0.0
2014-Oct-30 21:31N 52°25' E 004°47'0 0.0
2014-Oct-30 20:31N 52°25' E 004°47'0 0.0
2014-Oct-30 19:31N 52°25' E 004°47'0 0.0
2014-Oct-30 18:31N 52°25' E 004°47'0 0.0
2014-Oct-30 17:31N 52°25' E 004°47'0 0.0
2014-Oct-30 16:31N 52°25' E 004°47'0 0.0
2014-Oct-30 13:21N 52°25' E 004°47'1 1.2
2014-Oct-30 12:33N 52°26' E 004°46'6 6.3
2014-Oct-30 11:33N 52°28' E 004°36'3 3.5
2014-Oct-30 10:33N 52°28' E 004°31'9 9.3
2014-Oct-30 09:33N 52°29' E 004°15'4 4.3
2014-Oct-30 08:32N 52°28' E 004°08'0 0.0
2014-Oct-30 07:29N 52°28' E 004°08'0 0.0
2014-Oct-30 06:31N 52°28' E 004°08'3 3.0
2014-Oct-30 05:33N 52°28' E 004°04'1312.9
2014-Oct-30 04:33N 52°25' E 003°43'1514.9
2014-Oct-30 03:33N 52°15' E 003°24'4611.4
2014-Oct-29 23:29N 51°42' E 002°32'1010.6
2014-Oct-29 22:33N 51°35' E 002°21'1111.1
2014-Oct-29 21:34N 51°27' E 002°09'1111.2
2014-Oct-29 20:33N 51°15' E 002°07'1111.3
2014-Oct-29 19:34N 51°10' E 001°52'1212.4
2014-Oct-29 18:33N 51°02' E 001°37'5012.0
2014-Oct-29 14:24N 50°27' E 000°40'171 9.8
2014-Oct-28 21:00N 49°30' W 003°30'5614.1 060 / 51014.2 5.4 15.514.614.0
2014-Oct-28 17:00N 49°06' W 004°48'5710.3 140 / 111013.1 5.4 15.014.113.0
2014-Oct-28 11:31N 48°24' W 005°46'1212.8
2014-Oct-28 10:33N 48°14' W 005°36'2512.5
2014-Oct-28 08:33N 47°53' W 005°16'5313.3
2014-Oct-28 04:33N 47°21' W 004°12'1413.9
2014-Oct-28 03:33N 47°14' W 003°54'4314.2
2014-Oct-28 00:32N 46°48' W 003°05'1414.5
2014-Oct-27 23:33N 46°40' W 002°48'1414.5
2014-Oct-27 22:33N 46°31' W 002°31'127225.2
2014-Oct-27 22:00N 44°24' W 002°18'118273.0 310 / 61017.6 18.012.717.0
2014-Oct-27 21:34N 46°22' W 002°14'1514.7
2014-Oct-27 20:33N 46°14' W 001°56'2014.2
2014-Oct-27 19:09N 46°07' W 001°30'813.7
2014-Oct-27 18:33N 46°06' W 001°18'  
2014-Oct-25 00:14N 46°05' W 001°15'0 0.0
2014-Oct-24 20:26N 46°05' W 001°15'0 0.0
2014-Oct-24 19:32N 46°05' W 001°15'0 0.0
2014-Oct-24 18:17N 46°05' W 001°15'0 0.0
2014-Oct-24 14:14N 46°05' W 001°15'0 0.0
2014-Oct-24 13:32N 46°05' W 001°15'0 0.0
2014-Oct-24 12:32N 46°05' W 001°15'0 0.1
2014-Oct-24 10:32N 46°05' W 001°15'4 0.3
2014-Oct-23 23:19N 46°06' W 001°20'1013.2
2014-Oct-23 22:33N 46°07' W 001°35'1414.2
2014-Oct-23 21:34N 46°12' W 001°54'1414.3
2014-Oct-23 20:33N 46°21' W 002°11'213 9.2
2014-Oct-22 21:19N 49°46' W 003°32'1113.9
2014-Oct-22 20:33N 49°52' W 003°18'3712.0
2014-Oct-22 17:30N 50°03' W 002°24'7514.3
2014-Oct-22 12:15N 49°41' W 000°32'1014.5
2014-Oct-22 11:33N 49°38' W 000°18'3 3.1
2014-Oct-22 10:32N 49°37' W 000°13'0 0.0
2014-Oct-22 09:32N 49°37' W 000°13'0 0.1
2014-Oct-22 08:32N 49°37' W 000°13'0 0.0
2014-Oct-22 07:32N 49°37' W 000°13'0 0.0
2014-Oct-22 06:32N 49°37' W 000°13'0 0.1
2014-Oct-22 05:32N 49°37' W 000°13'0 0.0
2014-Oct-22 04:32N 49°37' W 000°13'0 0.2
2014-Oct-22 03:33N 49°36' W 000°13'1410.2
2014-Oct-22 02:11N 49°50' W 000°11'  
Track history (hours):
 
Tides and Currents Weather Stations Pressure Air Temp Water Temp Dewpoint Dewpoint Depression Visibility Wind Speed Wind Dir Waves Ship Positions

British Tenacity

Last reported at 2014-Oct-31 18:28 UTC. Time now 2014-Oct-31 19:29 UTC.
Position N 52°25' E 004°47'.

Type: Ship (hazmat cat C). MMSI: 235825000.

Date/timePositionNaut miles runAvg speedWind from/ knotsBaromVisibWave heightAir tempDewpointWater temp
2014-Oct-31 18:28N 52°25' E 004°47'0 0.0
2014-Oct-31 17:25N 52°25' E 004°47'0 0.0
2014-Oct-31 16:31N 52°25' E 004°47'0 0.0
2014-Oct-31 15:31N 52°25' E 004°47'0 0.0
2014-Oct-31 14:28N 52°25' E 004°47'0 0.0
2014-Oct-31 13:31N 52°25' E 004°47'0 0.0
2014-Oct-31 12:31N 52°25' E 004°47'0 0.0
2014-Oct-31 11:31N 52°25' E 004°47'0 0.0
2014-Oct-31 10:31N 52°25' E 004°47'0 0.0
2014-Oct-31 09:31N 52°25' E 004°47'0 0.0
2014-Oct-31 08:28N 52°25' E 004°47'0 0.0
2014-Oct-31 07:31N 52°25' E 004°47'0 0.0
2014-Oct-31 06:31N 52°25' E 004°47'0 0.0
2014-Oct-31 05:31N 52°25' E 004°47'0 0.0
2014-Oct-31 04:31N 52°25' E 004°47'0 0.0
2014-Oct-31 03:31N 52°25' E 004°47'0 0.0
2014-Oct-31 02:31N 52°25' E 004°47'0 0.0
2014-Oct-31 01:28N 52°25' E 004°47'0 0.0
2014-Oct-31 00:31N 52°25' E 004°47'0 0.0
2014-Oct-30 23:31N 52°25' E 004°47'0 0.0
2014-Oct-30 22:31N 52°25' E 004°47'0 0.0
2014-Oct-30 21:31N 52°25' E 004°47'0 0.0
2014-Oct-30 20:31N 52°25' E 004°47'0 0.0
2014-Oct-30 19:31N 52°25' E 004°47'0 0.0
2014-Oct-30 18:31N 52°25' E 004°47'0 0.0
2014-Oct-30 17:31N 52°25' E 004°47'0 0.0
2014-Oct-30 16:31N 52°25' E 004°47'0 0.0
2014-Oct-30 13:21N 52°25' E 004°47'1 1.2
2014-Oct-30 12:33N 52°26' E 004°46'6 6.3
2014-Oct-30 11:33N 52°28' E 004°36'3 3.5
2014-Oct-30 10:33N 52°28' E 004°31'9 9.3
2014-Oct-30 09:33N 52°29' E 004°15'4 4.3
2014-Oct-30 08:32N 52°28' E 004°08'0 0.0
2014-Oct-30 07:29N 52°28' E 004°08'0 0.0
2014-Oct-30 06:31N 52°28' E 004°08'3 3.0
2014-Oct-30 05:33N 52°28' E 004°04'1312.9
2014-Oct-30 04:33N 52°25' E 003°43'1514.9
2014-Oct-30 03:33N 52°15' E 003°24'4611.4
2014-Oct-29 23:29N 51°42' E 002°32'1010.6
2014-Oct-29 22:33N 51°35' E 002°21'1111.1
2014-Oct-29 21:34N 51°27' E 002°09'1111.2
2014-Oct-29 20:33N 51°15' E 002°07'1111.3
2014-Oct-29 19:34N 51°10' E 001°52'1212.4
2014-Oct-29 18:33N 51°02' E 001°37'5012.0
2014-Oct-29 14:24N 50°27' E 000°40'171 9.8
2014-Oct-28 21:00N 49°30' W 003°30'5614.1 060 / 51014.2 5.4 15.514.614.0
2014-Oct-28 17:00N 49°06' W 004°48'5710.3 140 / 111013.1 5.4 15.014.113.0
2014-Oct-28 11:31N 48°24' W 005°46'1212.8
2014-Oct-28 10:33N 48°14' W 005°36'2512.5
2014-Oct-28 08:33N 47°53' W 005°16'5313.3
2014-Oct-28 04:33N 47°21' W 004°12'1413.9
2014-Oct-28 03:33N 47°14' W 003°54'4314.2
2014-Oct-28 00:32N 46°48' W 003°05'1414.5
2014-Oct-27 23:33N 46°40' W 002°48'1414.5
2014-Oct-27 22:33N 46°31' W 002°31'127225.2
2014-Oct-27 22:00N 44°24' W 002°18'118273.0 310 / 61017.6 18.012.717.0
2014-Oct-27 21:34N 46°22' W 002°14'1514.7
2014-Oct-27 20:33N 46°14' W 001°56'2014.2
2014-Oct-27 19:09N 46°07' W 001°30'813.7
2014-Oct-27 18:33N 46°06' W 001°18'  
2014-Oct-25 00:14N 46°05' W 001°15'0 0.0
2014-Oct-24 20:26N 46°05' W 001°15'0 0.0
2014-Oct-24 19:32N 46°05' W 001°15'0 0.0
2014-Oct-24 18:17N 46°05' W 001°15'0 0.0
2014-Oct-24 14:14N 46°05' W 001°15'0 0.0
2014-Oct-24 13:32N 46°05' W 001°15'0 0.0
2014-Oct-24 12:32N 46°05' W 001°15'0 0.1
2014-Oct-24 10:32N 46°05' W 001°15'4 0.3
2014-Oct-23 23:19N 46°06' W 001°20'1013.2
2014-Oct-23 22:33N 46°07' W 001°35'1414.2
2014-Oct-23 21:34N 46°12' W 001°54'1414.3
2014-Oct-23 20:33N 46°21' W 002°11'213 9.2
2014-Oct-22 21:19N 49°46' W 003°32'1113.9
2014-Oct-22 20:33N 49°52' W 003°18'3712.0
2014-Oct-22 17:30N 50°03' W 002°24'7514.3
2014-Oct-22 12:15N 49°41' W 000°32'1014.5
2014-Oct-22 11:33N 49°38' W 000°18'3 3.1
2014-Oct-22 10:32N 49°37' W 000°13'0 0.0
2014-Oct-22 09:32N 49°37' W 000°13'0 0.1
2014-Oct-22 08:32N 49°37' W 000°13'0 0.0
2014-Oct-22 07:32N 49°37' W 000°13'0 0.0
2014-Oct-22 06:32N 49°37' W 000°13'0 0.1
2014-Oct-22 05:32N 49°37' W 000°13'0 0.0
2014-Oct-22 04:32N 49°37' W 000°13'0 0.2
2014-Oct-22 03:33N 49°36' W 000°13'1410.2
2014-Oct-22 02:11N 49°50' W 000°11'  

Dump ship's entire track history